< < Back
Terminal Aerodrome Forecast


Current Version              Previous Versions:   1  2  3  4  5  6  7  8  9  

Terminal Aerodrome Forecast

064
FTUS44 KBMX 291337 AAA
TAFANB
TAF AMD
KANB 291337Z 2914/3012 05006KT P6SM SCT010 BKN070
     FM291500 16004KT P6SM BKN250
     FM291800 16005KT P6SM VCTS BKN050CB
     FM300100 12002KT P6SM BKN120
      TEMPO 3009/3012 5SM BR=



Latest METAR

661
SAUS70 KWBC 301400 RRF
MTRANB
METAR KANB 301353Z AUTO 03005KT 10SM CLR 24/18 A3016 RMK AO2 SLP204
T02390178


USA.gov is the U.S. government's official web portal to all federal, state and local government web resources and services.